Time;durP1;ratioP1;P1;durP2;ratioP2;P2;SDS_P1;SDS_P2;PMS_P1;PMS_P2;Temp;Humidity;BMP_temperature;BMP_pressure;BME280_temperature;BME280_humidity;BME280_pressure;Samples;Min_cycle;Max_cycle;Signal;HPM_P1;HPM_P2
2023/09/15 06:38:56;;;;;;;11.48;3.35;;;;;;;13.42;84.70;96824.94;2100720;27;20582;-58
2023/09/15 06:41:00;;;;;;;7.63;3.25;;;;;;;13.86;83.82;96824.31;2093211;27;20554;-59
2023/09/15 06:49:21;;;;;;;7.95;3.25;;;;;;;14.41;82.07;96833.53;2085238;28;20580;-59
2023/09/15 06:50:23;;;;;;;12.25;3.55;;;;;;;14.43;81.93;96818.50;2077667;28;20248;-59
2023/09/15 06:51:26;;;;;;;6.95;3.20;;;;;;;14.81;81.53;96833.03;2079185;28;20193;-59
2023/09/15 06:52:27;;;;;;;6.95;2.90;;;;;;;14.87;81.86;96832.66;2079676;28;20329;-59
2023/09/15 06:53:29;;;;;;;9.07;3.47;;;;;;;15.22;81.71;96832.31;2081914;28;20250;-59
2023/09/15 06:54:30;;;;;;;10.13;3.60;;;;;;;15.52;81.39;96831.41;2083018;28;20629;-59
2023/09/15 06:55:33;;;;;;;5.63;3.08;;;;;;;15.78;81.18;96832.41;2082393;28;20274;-59
2023/09/15 06:56:34;;;;;;;7.72;3.60;;;;;;;16.03;80.22;96832.69;2078742;28;20202;-59
2023/09/15 06:57:36;;;;;;;5.22;2.88;;;;;;;16.07;79.57;96829.72;2079111;28;20288;-59
2023/09/15 06:58:37;;;;;;;7.97;3.38;;;;;;;16.14;78.18;96831.03;2078708;28;20638;-59
2023/09/15 06:59:39;;;;;;;8.07;3.15;;;;;;;16.19;77.39;96828.13;2079132;28;20197;-59
2023/09/15 07:00:40;;;;;;;9.82;2.70;;;;;;;16.12;78.01;96824.19;2077963;28;20250;-59
2023/09/15 07:01:42;;;;;;;8.48;3.22;;;;;;;15.93;78.26;96829.78;2077783;28;20202;-59
2023/09/15 07:02:44;;;;;;;10.27;3.35;;;;;;;16.03;77.83;96828.25;2078449;28;20198;-60
2023/09/15 07:03:46;;;;;;;5.97;3.35;;;;;;;16.38;76.76;96824.28;2078609;28;20213;-59
2023/09/15 07:04:47;;;;;;;6.00;2.75;;;;;;;16.27;76.65;96827.63;2078079;28;20667;-59
2023/09/15 07:05:49;;;;;;;9.93;3.05;;;;;;;16.39;76.67;96828.59;2079051;28;20752;-59
2023/09/15 07:06:50;;;;;;;7.40;3.30;;;;;;;16.49;76.40;96819.16;2080021;28;20206;-59
2023/09/15 07:07:51;;;;;;;10.75;3.08;;;;;;;16.90;75.29;96818.19;2079182;28;20193;-59
2023/09/15 07:08:53;;;;;;;5.93;3.05;;;;;;;17.23;74.38;96826.56;2076244;28;20209;-59
2023/09/15 07:09:55;;;;;;;6.00;3.40;;;;;;;17.76;72.63;96823.78;2077798;28;20218;-59
2023/09/15 07:10:56;;;;;;;7.28;2.90;;;;;;;17.57;73.20;96813.66;2079757;28;20622;-59
2023/09/15 07:11:57;;;;;;;5.57;2.65;;;;;;;17.79;73.40;96813.00;2079302;28;20298;-59
2023/09/15 07:12:59;;;;;;;5.03;3.30;;;;;;;18.34;71.55;96813.47;2080681;28;20553;-59
2023/09/15 07:14:01;;;;;;;9.82;3.10;;;;;;;18.20;71.80;96819.75;2079256;28;20198;-60
2023/09/15 07:15:05;;;;;;;5.85;2.72;;;;;;;18.55;71.31;96810.19;2079184;28;20201;-60
2023/09/15 07:16:07;;;;;;;13.10;4.85;;;;;;;18.58;70.62;96817.91;2077550;28;20629;-60
2023/09/15 07:17:11;;;;;;;5.30;2.65;;;;;;;19.24;69.38;96815.59;2079058;28;20197;-60
2023/09/15 07:18:13;;;;;;;4.50;2.47;;;;;;;19.09;69.28;96817.59;2077729;28;20194;-60
2023/09/15 07:19:14;;;;;;;6.32;2.40;;;;;;;19.36;68.35;96813.81;2078565;28;20198;-60
2023/09/15 07:20:16;;;;;;;9.10;2.75;;;;;;;19.48;68.08;96824.41;2086879;28;20278;-59
2023/09/15 07:21:17;;;;;;;4.80;2.75;;;;;;;19.30;68.36;96819.56;2086875;28;20203;-59
2023/09/15 07:22:19;;;;;;;6.05;2.78;;;;;;;19.33;68.56;96816.66;2078667;28;20211;-62
2023/09/15 07:23:20;;;;;;;18.00;3.10;;;;;;;19.75;68.14;96818.72;2078768;28;20662;-62
2023/09/15 07:24:21;;;;;;;7.50;3.15;;;;;;;20.11;66.40;96821.25;2079260;28;20203;-62
2023/09/15 07:25:24;;;;;;;5.82;2.50;;;;;;;19.68;66.88;96820.16;2078891;28;20224;-62
2023/09/15 07:26:26;;;;;;;5.70;2.60;;;;;;;19.97;66.40;96817.91;2079480;28;20197;-62
2023/09/15 07:27:28;;;;;;;4.53;2.67;;;;;;;20.18;65.81;96814.50;2079559;28;20737;-62
2023/09/15 07:28:29;;;;;;;7.28;2.90;;;;;;;20.16;65.27;96819.91;2079203;28;20197;-59
2023/09/15 07:29:31;;;;;;;7.95;3.08;;;;;;;20.59;64.29;96823.50;2078826;28;20253;-60
2023/09/15 07:30:32;;;;;;;11.25;2.97;;;;;;;20.29;65.27;96813.59;2078800;28;20228;-60
2023/09/15 07:31:35;;;;;;;11.00;3.40;;;;;;;20.71;64.31;96811.09;2080545;28;20206;-60
2023/09/15 07:32:39;;;;;;;6.18;3.65;;;;;;;21.04;63.42;96811.88;2078725;28;20214;-60
2023/09/15 07:33:43;;;;;;;5.47;3.15;;;;;;;21.40;62.20;96814.16;2078580;28;20209;-60
2023/09/15 07:34:45;;;;;;;6.70;3.47;;;;;;;21.20;62.46;96817.56;2078928;28;20293;-63
2023/09/15 07:35:46;;;;;;;13.48;3.47;;;;;;;21.57;62.13;96810.06;2081055;28;20244;-63
2023/09/15 07:36:50;;;;;;;8.77;3.22;;;;;;;21.18;62.39;96818.66;2079793;28;20202;-60
2023/09/15 07:37:52;;;;;;;4.80;2.80;;;;;;;21.50;61.86;96818.53;2078573;28;20672;-60
2023/09/15 07:38:53;;;;;;;7.75;3.13;;;;;;;21.90;60.24;96805.44;2078494;28;20194;-60
2023/09/15 07:39:55;;;;;;;8.10;3.45;;;;;;;22.28;60.20;96804.69;2078630;28;20252;-60
2023/09/15 07:40:57;;;;;;;5.97;3.00;;;;;;;22.23;59.95;96803.41;2079301;28;20271;-60
2023/09/15 07:41:59;;;;;;;12.32;3.35;;;;;;;21.33;62.03;96812.03;2078929;28;20202;-60
2023/09/15 07:43:00;;;;;;;10.55;3.10;;;;;;;20.73;63.43;96813.59;2086084;28;20283;-61
2023/09/15 07:44:02;;;;;;;7.43;3.83;;;;;;;20.79;64.17;96803.31;2086738;28;20268;-60
2023/09/15 07:45:04;;;;;;;14.68;3.90;;;;;;;21.46;62.62;96806.50;2077700;28;20205;-60
2023/09/15 07:46:05;;;;;;;5.80;3.00;;;;;;;22.04;61.40;96806.88;2078699;28;20251;-60
2023/09/15 07:47:15;;;;;;;9.55;4.18;;;;;;;22.62;59.85;96804.31;2079244;28;20195;-60
2023/09/15 07:48:17;;;;;;;11.13;4.10;;;;;;;23.00;59.25;96807.09;2079105;28;20212;-61
2023/09/15 07:49:18;;;;;;;16.70;3.90;;;;;;;22.57;59.58;96803.06;2078412;28;20693;-60
2023/09/15 07:50:20;;;;;;;11.27;3.90;;;;;;;22.40;60.32;96802.78;2079898;28;20455;-60
2023/09/15 07:51:23;;;;;;;7.63;3.65;;;;;;;22.94;59.36;96805.84;2077703;28;20193;-60
2023/09/15 07:52:26;;;;;;;11.87;3.40;;;;;;;23.22;58.69;96805.13;2080592;28;20198;-60
2023/09/15 07:53:28;;;;;;;10.53;3.53;;;;;;;23.56;57.56;96802.75;2078268;28;20462;-60
2023/09/15 07:54:29;;;;;;;7.83;4.30;;;;;;;23.83;57.42;96810.94;2079410;28;20427;-60
2023/09/15 07:55:31;;;;;;;5.43;3.60;;;;;;;23.48;57.97;96802.66;2076756;28;21490;-60
2023/09/15 07:56:33;;;;;;;8.90;3.97;;;;;;;23.61;57.64;96808.50;2077980;28;20463;-60
2023/09/15 07:57:37;;;;;;;6.40;4.10;;;;;;;23.63;58.03;96809.19;2079051;28;20423;-60
2023/09/15 07:58:38;;;;;;;9.30;3.90;;;;;;;23.45;58.44;96806.47;2078592;28;20922;-60
2023/09/15 07:59:40;;;;;;;7.03;4.30;;;;;;;23.59;58.30;96807.81;2080131;28;20473;-60
2023/09/15 08:00:41;;;;;;;10.83;4.80;;;;;;;23.74;57.82;96804.66;2072982;28;20467;-60
2023/09/15 08:01:43;;;;;;;13.07;4.10;;;;;;;23.30;58.58;96806.06;2070579;28;20435;-60
2023/09/15 08:02:44;;;;;;;12.60;3.73;;;;;;;23.41;59.32;96802.38;2071119;28;20436;-60
2023/09/15 08:03:46;;;;;;;6.73;4.37;;;;;;;23.37;59.50;96803.66;2073069;28;20482;-60
2023/09/15 08:04:48;;;;;;;6.07;4.17;;;;;;;23.03;60.41;96805.97;2073255;28;20526;-60
2023/09/15 08:05:49;;;;;;;13.77;4.18;;;;;;;23.90;58.64;96807.53;2074491;28;20428;-61
2023/09/15 08:06:52;;;;;;;6.50;3.20;;;;;;;23.93;58.08;96803.75;2073449;28;20202;-61
2023/09/15 08:07:54;;;;;;;6.23;4.67;;;;;;;23.99;58.30;96807.66;2074173;28;20484;-60
2023/09/15 08:08:55;;;;;;;8.73;4.10;;;;;;;24.98;55.73;96804.13;2072785;28;20424;-60
2023/09/15 08:09:56;;;;;;;7.87;4.63;;;;;;;24.87;56.00;96802.53;2071282;28;20463;-60
2023/09/15 08:10:58;;;;;;;8.33;4.80;;;;;;;24.65;56.82;96803.88;2073201;28;20466;-60
2023/09/15 08:12:00;;;;;;;8.38;4.75;;;;;;;24.54;57.08;96802.22;2073485;28;20516;-60
2023/09/15 08:13:03;;;;;;;10.70;4.30;;;;;;;24.12;58.33;96802.81;2073516;28;20643;-61
2023/09/15 08:14:04;;;;;;;6.40;3.70;;;;;;;24.63;57.54;96800.47;2073270;28;20206;-60
2023/09/15 08:15:07;;;;;;;7.07;4.20;;;;;;;25.31;56.15;96796.34;2074348;28;20532;-60
2023/09/15 08:16:08;;;;;;;7.10;3.83;;;;;;;25.77;54.92;96798.78;2072216;28;20428;-61
2023/09/15 08:17:10;;;;;;;7.67;5.03;;;;;;;25.71;55.00;96796.75;2073121;28;20432;-60
2023/09/15 08:18:27;;;;;;;7.23;5.37;;;;;;;26.17;53.02;96799.97;2073250;28;20420;-61
2023/09/15 08:19:29;;;;;;;9.83;4.73;;;;;;;25.34;55.28;96800.53;2071834;28;20464;-60
2023/09/15 08:20:30;;;;;;;6.55;4.97;;;;;;;25.42;54.97;96797.97;2073670;28;20462;-61
2023/09/15 08:21:32;;;;;;;10.73;4.82;;;;;;;24.49;56.40;96809.03;2074674;28;20281;-60
2023/09/15 08:22:34;;;;;;;10.07;4.82;;;;;;;22.81;60.30;96803.47;2074437;28;20203;-60
2023/09/15 08:23:36;;;;;;;7.18;4.60;;;;;;;23.26;59.87;96804.69;2073261;28;20285;-60
2023/09/15 08:24:37;;;;;;;14.77;5.10;;;;;;;23.59;59.63;96805.16;2072859;28;20210;-60
2023/09/15 08:25:39;;;;;;;14.68;4.43;;;;;;;23.79;59.57;96805.91;2071220;28;20233;-60
2023/09/15 08:26:41;;;;;;;8.75;5.70;;;;;;;24.17;58.99;96808.53;2070584;28;20672;-60
2023/09/15 08:27:46;;;;;;;13.35;4.82;;;;;;;24.73;57.65;96798.59;2072686;28;20206;-60
2023/09/15 08:28:48;;;;;;;14.05;5.30;;;;;;;24.82;56.76;96798.66;2073698;28;20201;-60
2023/09/15 08:29:49;;;;;;;8.70;5.07;;;;;;;23.73;58.97;96797.63;2074497;28;20732;-60
2023/09/15 08:30:51;;;;;;;9.95;5.65;;;;;;;24.47;57.40;96803.84;2075128;28;20198;-60
2023/09/15 08:31:52;;;;;;;9.27;6.20;;;;;;;24.07;58.44;96797.06;2072757;28;20236;-60
2023/09/15 08:32:53;;;;;;;15.15;5.50;;;;;;;24.69;57.04;96799.88;2072551;28;20276;-60
2023/09/15 08:33:55;;;;;;;12.23;5.90;;;;;;;23.68;59.02;96802.56;2074941;28;20195;-60
2023/09/15 08:34:58;;;;;;;10.25;4.68;;;;;;;23.90;58.83;96799.53;2074186;28;20218;-60
2023/09/15 08:35:59;;;;;;;12.13;6.43;;;;;;;23.38;59.56;96796.53;2072693;28;20208;-60
2023/09/15 08:37:01;;;;;;;15.18;6.13;;;;;;;22.94;61.30;96797.88;2071962;28;20238;-60
2023/09/15 08:38:04;;;;;;;10.20;5.32;;;;;;;23.63;60.85;96803.03;2072762;28;20231;-60
2023/09/15 08:39:05;;;;;;;10.93;5.18;;;;;;;24.62;59.02;96802.31;2073668;28;20249;-60
2023/09/15 08:40:07;;;;;;;13.05;6.00;;;;;;;24.62;57.89;96796.97;2071252;28;20219;-60
2023/09/15 08:41:22;;;;;;;14.45;5.85;;;;;;;23.89;59.71;96795.19;2073136;28;20846;-60
2023/09/15 08:42:26;;;;;;;7.28;5.13;;;;;;;24.94;57.51;96792.09;2072996;28;20192;-60
2023/09/15 08:43:29;;;;;;;7.95;4.60;;;;;;;25.47;56.49;96789.44;2073764;28;20652;-60
2023/09/15 08:44:35;;;;;;;7.80;4.50;;;;;;;26.10;55.06;96792.78;2072332;28;20562;-59
2023/09/15 08:45:37;;;;;;;13.32;5.95;;;;;;;25.74;54.78;96789.25;2073276;28;20241;-60
2023/09/15 08:46:42;;;;;;;11.55;5.35;;;;;;;24.93;56.86;96795.75;2071986;28;20227;-60
2023/09/15 08:47:47;;;;;;;10.15;4.65;;;;;;;25.77;55.67;96784.59;2072861;28;20976;-59
2023/09/15 08:48:51;;;;;;;10.63;5.15;;;;;;;25.73;55.38;96786.75;2072205;28;20314;-60
2023/09/15 08:49:54;;;;;;;7.07;4.75;;;;;;;25.48;56.14;96789.28;2071652;28;20224;-59
2023/09/15 08:50:58;;;;;;;8.02;5.45;;;;;;;25.18;56.65;96788.75;2072945;28;20654;-65
2023/09/15 08:52:03;;;;;;;12.90;5.40;;;;;;;25.68;55.65;96781.88;2070559;28;20241;-65
2023/09/15 08:53:05;;;;;;;7.25;4.78;;;;;;;25.53;56.13;96791.50;2071783;28;20292;-65
2023/09/15 08:54:07;;;;;;;13.27;5.35;;;;;;;25.96;55.16;96792.34;2071940;28;20255;-65
2023/09/15 08:55:09;;;;;;;8.48;4.75;;;;;;;24.95;56.29;96788.44;2071642;28;20240;-65
2023/09/15 08:56:12;;;;;;;9.20;5.10;;;;;;;25.42;54.54;96790.78;2074526;28;20320;-65
2023/09/15 08:57:15;;;;;;;6.85;4.35;;;;;;;24.23;57.38;96783.09;2072531;28;20201;-65
2023/09/15 08:58:18;;;;;;;8.63;4.93;;;;;;;23.58;59.17;96787.47;2073572;28;20291;-64
2023/09/15 08:59:21;;;;;;;6.45;4.40;;;;;;;24.08;57.45;96788.09;2075267;28;20201;-65
2023/09/15 09:00:22;;;;;;;6.85;4.50;;;;;;;25.26;55.07;96785.31;2075106;28;20303;-65
2023/09/15 09:01:24;;;;;;;10.18;5.05;;;;;;;24.51;56.62;96781.19;2075172;28;20197;-65
2023/09/15 09:02:26;;;;;;;8.55;5.07;;;;;;;23.19;60.05;96787.59;2074638;28;20208;-65
2023/09/15 09:03:28;;;;;;;8.90;5.22;;;;;;;24.19;58.25;96781.69;2074084;28;20247;-65
2023/09/15 09:04:30;;;;;;;8.23;3.85;;;;;;;25.34;56.09;96769.31;2072943;28;20195;-65
2023/09/15 09:05:32;;;;;;;9.32;4.90;;;;;;;25.39;55.17;96777.72;2071444;28;20241;-66
2023/09/15 09:06:35;;;;;;;6.75;4.80;;;;;;;24.69;56.14;96775.88;2071452;28;20253;-66
2023/09/15 09:07:37;;;;;;;7.40;4.93;;;;;;;25.61;54.33;96780.00;2073783;28;20776;-65
2023/09/15 09:08:45;;;;;;;6.95;4.28;;;;;;;25.47;54.31;96781.44;2073062;28;20219;-65
2023/09/15 09:09:48;;;;;;;6.95;4.95;;;;;;;24.08;57.89;96774.75;2071777;28;20205;-65
2023/09/15 09:10:49;;;;;;;6.95;4.05;;;;;;;25.63;55.16;96780.69;2072090;28;20785;-65
2023/09/15 09:11:51;;;;;;;10.95;4.88;;;;;;;25.58;55.04;96770.47;2078836;28;20316;-66
2023/09/15 09:12:53;;;;;;;6.65;5.10;;;;;;;26.03;53.82;96782.69;2079453;28;20277;-65
2023/09/15 09:13:54;;;;;;;11.43;5.18;;;;;;;26.45;52.93;96778.28;2071154;28;20250;-66
2023/09/15 09:14:57;;;;;;;9.23;5.20;;;;;;;26.86;51.79;96778.31;2071538;28;20247;-65
2023/09/15 09:15:59;;;;;;;8.00;4.55;;;;;;;25.85;53.51;96776.59;2072690;28;20194;-65
2023/09/15 09:17:01;;;;;;;13.27;5.35;;;;;;;24.49;56.41;96783.16;2073303;28;20665;-65
2023/09/15 09:18:21;;;;;;;8.27;5.30;;;;;;;23.98;57.58;96776.66;2073207;28;20209;-65
2023/09/15 09:19:37;;;;;;;7.00;5.05;;;;;;;22.92;59.84;96777.66;2072220;28;20201;-65
2023/09/15 09:20:39;;;;;;;7.53;4.78;;;;;;;24.67;56.94;96779.69;2072186;28;20228;-65
2023/09/15 09:21:40;;;;;;;6.63;4.50;;;;;;;25.77;54.67;96772.06;2073748;28;20205;-66
2023/09/15 09:22:41;;;;;;;12.20;5.78;;;;;;;25.38;54.22;96772.53;2075764;28;20736;-65
2023/09/15 09:23:43;;;;;;;6.85;5.05;;;;;;;24.89;55.17;96775.69;2072584;28;20668;-65
2023/09/15 09:24:52;;;;;;;11.82;5.10;;;;;;;23.99;57.58;96771.16;2072542;28;20550;-65
2023/09/15 09:25:54;;;;;;;6.80;4.32;;;;;;;25.56;55.22;96772.44;2074616;28;20225;-66
2023/09/15 09:26:55;;;;;;;7.80;4.13;;;;;;;26.63;52.93;96766.59;2073844;28;20220;-65
2023/09/15 09:27:57;;;;;;;13.27;5.18;;;;;;;26.98;52.22;96775.31;2074227;28;20213;-65
2023/09/15 09:28:58;;;;;;;10.65;4.13;;;;;;;26.99;52.27;96772.44;2072486;28;20194;-65
2023/09/15 09:30:01;;;;;;;8.15;4.72;;;;;;;26.08;53.03;96763.50;2073936;28;20251;-65
2023/09/15 09:31:02;;;;;;;8.20;4.65;;;;;;;26.65;52.67;96768.09;2073173;28;20198;-65
2023/09/15 09:32:04;;;;;;;6.35;4.20;;;;;;;26.88;51.46;96773.66;2075250;28;20202;-65
2023/09/15 09:33:08;;;;;;;7.47;4.90;;;;;;;26.47;52.17;96770.09;2072680;28;20707;-65
2023/09/15 09:34:10;;;;;;;8.55;5.25;;;;;;;25.12;54.10;96772.53;2072908;28;20252;-66
2023/09/15 09:35:12;;;;;;;9.20;5.70;;;;;;;24.92;55.81;96768.22;2071340;28;20280;-65
2023/09/15 09:36:15;;;;;;;10.00;6.50;;;;;;;26.50;53.22;96765.25;2073323;28;20230;-65
2023/09/15 09:37:24;;;;;;;7.28;4.78;;;;;;;26.75;51.89;96767.13;2073512;28;20281;-65
2023/09/15 09:38:26;;;;;;;7.78;4.43;;;;;;;26.45;53.23;96769.41;2072878;28;20202;-65
2023/09/15 09:39:28;;;;;;;9.70;4.35;;;;;;;26.32;52.91;96768.06;2082282;28;20193;-65
2023/09/15 09:40:33;;;;;;;6.40;4.68;;;;;;;25.53;54.93;96768.25;2072974;28;20217;-66
2023/09/15 09:41:35;;;;;;;7.32;4.53;;;;;;;26.72;52.68;96758.38;2071149;28;20202;-65
2023/09/15 09:42:37;;;;;;;8.27;4.53;;;;;;;28.14;50.96;96768.63;2071492;28;20286;-65
2023/09/15 09:43:41;;;;;;;5.97;4.85;;;;;;;28.28;50.06;96766.22;2071866;28;20202;-65
2023/09/15 09:44:43;;;;;;;7.72;4.20;;;;;;;29.00;48.51;96759.63;2072423;28;20277;-65
2023/09/15 09:45:48;;;;;;;5.75;3.97;;;;;;;29.34;47.84;96765.56;2071870;28;20226;-65
2023/09/15 09:46:53;;;;;;;9.93;4.88;;;;;;;29.47;47.01;96773.81;2071816;28;20230;-66
2023/09/15 09:47:55;;;;;;;8.10;4.75;;;;;;;29.89;46.87;96764.28;2071463;28;20201;-65
2023/09/15 09:48:57;;;;;;;8.65;5.30;;;;;;;28.61;48.22;96760.63;2072040;28;20915;-66
2023/09/15 09:50:05;;;;;;;6.10;4.32;;;;;;;29.04;48.09;96760.94;2071159;28;20285;-65
2023/09/15 09:51:07;;;;;;;6.60;4.00;;;;;;;29.85;47.07;96762.94;2074286;28;20242;-65
2023/09/15 09:52:09;;;;;;;6.82;4.38;;;;;;;30.59;45.96;96761.97;2074520;28;20268;-65
2023/09/15 09:53:10;;;;;;;8.50;5.20;;;;;;;30.85;45.27;96762.38;2074698;28;20654;-66
2023/09/15 09:54:14;;;;;;;11.30;5.50;;;;;;;30.32;45.26;96751.91;2074171;28;20252;-65
2023/09/15 09:55:17;;;;;;;9.98;4.55;;;;;;;30.68;45.64;96764.50;2073081;28;20600;-66
2023/09/15 09:56:18;;;;;;;10.05;4.53;;;;;;;29.48;47.12;96752.13;2073799;28;20711;-65
2023/09/15 09:57:20;;;;;;;11.48;5.07;;;;;;;27.98;49.67;96763.31;2073500;28;20275;-65
2023/09/15 09:58:23;;;;;;;6.43;4.00;;;;;;;29.37;47.86;96757.97;2073551;28;20207;-65
2023/09/15 09:59:27;;;;;;;6.50;4.30;;;;;;;30.07;46.62;96747.72;2072952;28;20858;-65
2023/09/15 10:00:32;;;;;;;9.45;4.80;;;;;;;28.87;48.53;96754.88;2073288;28;20229;-66
2023/09/15 10:01:34;;;;;;;8.65;5.18;;;;;;;28.79;48.60;96758.47;2074183;28;20259;-65
2023/09/15 10:02:40;;;;;;;13.50;5.10;;;;;;;29.03;48.49;96753.03;2074158;28;20201;-65
2023/09/15 10:03:41;;;;;;;8.55;4.63;;;;;;;30.14;46.82;96747.78;2073597;28;20210;-66
2023/09/15 10:04:43;;;;;;;5.97;3.80;;;;;;;30.94;45.55;96750.44;2076171;28;20585;-65
2023/09/15 10:05:46;;;;;;;9.55;4.45;;;;;;;31.21;45.07;96750.66;2073709;28;20222;-65
2023/09/15 10:06:48;;;;;;;6.60;4.37;;;;;;;31.70;44.25;96754.31;2071477;28;20205;-65
2023/09/15 10:07:53;;;;;;;8.10;5.67;;;;;;;30.50;44.41;96748.81;2071830;28;21158;-66
2023/09/15 10:08:59;;;;;;;7.00;4.97;;;;;;;30.55;45.04;96751.75;2080427;28;20515;-66
2023/09/15 10:10:03;;;;;;;8.33;4.60;;;;;;;31.29;44.64;96746.97;2078060;28;20687;-66
2023/09/15 10:11:05;;;;;;;8.43;5.07;;;;;;;32.24;43.15;96748.09;2069041;28;20452;-66
2023/09/15 10:12:07;;;;;;;8.93;4.47;;;;;;;32.76;42.55;96749.47;2076149;28;20432;-66
2023/09/15 10:13:12;;;;;;;8.73;4.40;;;;;;;32.79;42.26;96746.34;2076118;28;20482;-66
2023/09/15 10:14:15;;;;;;;10.77;5.63;;;;;;;29.00;46.83;96741.66;2069815;28;20827;-66
2023/09/15 10:15:17;;;;;;;9.00;5.30;;;;;;;29.52;46.47;96739.13;2071368;28;20452;-66
2023/09/15 10:16:19;;;;;;;8.00;5.63;;;;;;;29.26;47.36;96748.44;2070646;28;20432;-65
2023/09/15 10:17:22;;;;;;;7.10;4.57;;;;;;;29.50;47.33;96733.09;2071598;28;20487;-66
2023/09/15 10:18:24;;;;;;;11.33;5.30;;;;;;;30.69;45.58;96734.69;2074220;28;20475;-66
2023/09/15 10:19:26;;;;;;;7.13;4.27;;;;;;;30.99;44.99;96733.69;2073556;28;20420;-66
2023/09/15 10:20:29;;;;;;;6.47;4.77;;;;;;;31.74;44.00;96732.13;2071954;28;20507;-65
2023/09/15 10:21:33;;;;;;;9.10;4.90;;;;;;;30.39;45.11;96729.41;2071072;28;20432;-65
2023/09/15 10:22:37;;;;;;;8.33;4.13;;;;;;;31.03;44.61;96727.72;2072698;28;20455;-65
2023/09/15 10:23:39;;;;;;;15.07;4.23;;;;;;;31.61;44.22;96728.50;2072300;28;21054;-66
2023/09/15 10:24:53;;;;;;;9.50;5.47;;;;;;;31.26;44.47;96730.19;2072853;28;20428;-66
2023/09/15 10:25:54;;;;;;;9.20;5.60;;;;;;;30.35;45.50;96730.81;2071400;28;20911;-66
2023/09/15 10:26:56;;;;;;;11.20;4.30;;;;;;;31.12;44.66;96724.88;2072604;28;20515;-66
2023/09/15 10:27:58;;;;;;;13.03;6.43;;;;;;;31.31;42.78;96728.75;2073009;28;20431;-65
2023/09/15 10:29:03;;;;;;;12.67;6.07;;;;;;;30.78;44.26;96722.75;2073268;28;20811;-66
2023/09/15 10:30:06;;;;;;;10.53;4.70;;;;;;;31.20;44.71;96725.56;2071452;28;20808;-65
2023/09/15 10:31:08;;;;;;;6.63;4.87;;;;;;;32.14;43.16;96725.19;2071875;28;20486;-65
2023/09/15 10:32:17;;;;;;;6.20;4.30;;;;;;;33.00;41.56;96723.66;2072161;28;20907;-66
2023/09/15 10:33:29;;;;;;;6.23;3.93;;;;;;;32.72;41.82;96725.53;2071704;28;20485;-66
2023/09/15 10:34:32;;;;;;;7.47;3.90;;;;;;;32.96;41.26;96719.72;2070531;28;20834;-66
2023/09/15 10:35:34;;;;;;;6.97;4.70;;;;;;;32.36;41.52;96725.91;2071064;28;20815;-66
2023/09/15 10:36:35;;;;;;;5.63;4.50;;;;;;;32.03;42.27;96722.03;2072169;28;20537;-66
2023/09/15 10:37:42;;;;;;;6.73;3.53;;;;;;;31.06;43.62;96721.94;2073374;28;20481;-66
2023/09/15 10:38:45;;;;;;;5.87;4.60;;;;;;;29.39;45.06;96720.94;2073126;28;20428;-66
2023/09/15 10:39:59;;;;;;;8.50;4.80;;;;;;;29.11;45.69;96713.50;2072992;28;20839;-65
2023/09/15 10:41:05;;;;;;;8.50;4.33;;;;;;;29.51;45.79;96718.66;2073517;28;20807;-66
2023/09/15 10:42:14;;;;;;;9.83;5.30;;;;;;;30.91;44.56;96713.94;2070722;28;20440;-66
2023/09/15 10:43:17;;;;;;;5.97;3.90;;;;;;;32.05;42.84;96716.47;2072816;28;20821;-66
2023/09/15 10:44:28;;;;;;;9.73;5.00;;;;;;;32.59;42.25;96719.28;2073825;28;20513;-66
2023/09/15 10:45:29;;;;;;;6.30;4.63;;;;;;;32.78;41.51;96712.25;2070532;28;21050;-66
2023/09/15 10:46:39;;;;;;;6.20;4.33;;;;;;;33.24;41.61;96705.94;2072552;28;20443;-65
2023/09/15 10:47:42;;;;;;;6.80;4.70;;;;;;;33.46;40.38;96709.28;2076267;28;20428;-66
2023/09/15 10:48:51;;;;;;;8.00;4.37;;;;;;;32.91;40.64;96708.72;2076080;28;21000;-66
2023/09/15 10:49:54;;;;;;;9.73;5.07;;;;;;;30.75;43.64;96706.97;2070114;28;20437;-66
2023/09/15 10:51:04;;;;;;;8.63;5.37;;;;;;;31.21;44.01;96711.06;2080275;28;20462;-65
2023/09/15 10:52:07;;;;;;;7.23;4.70;;;;;;;32.04;42.56;96704.81;2078209;28;20442;-65
2023/09/15 10:53:10;;;;;;;7.57;5.07;;;;;;;32.37;42.34;96708.66;2072339;28;20986;-66
2023/09/15 10:54:12;;;;;;;7.43;4.10;;;;;;;32.44;42.45;96714.06;2073657;28;20419;-66
2023/09/15 10:55:16;;;;;;;7.47;4.20;;;;;;;32.60;41.42;96708.25;2072475;28;20453;-66
2023/09/15 10:56:19;;;;;;;8.37;5.17;;;;;;;29.85;45.34;96701.03;2071607;28;20435;-66
2023/09/15 10:57:20;;;;;;;6.27;4.47;;;;;;;30.21;45.83;96705.63;2070117;28;20519;-66
2023/09/15 10:58:23;;;;;;;10.50;5.27;;;;;;;30.84;44.14;96701.44;2071980;28;20428;-65
2023/09/15 10:59:26;;;;;;;7.83;4.43;;;;;;;31.05;43.50;96706.75;2073986;28;20419;-65
2023/09/15 11:00:29;;;;;;;7.20;4.60;;;;;;;31.68;43.41;96705.09;2074549;28;20448;-66
2023/09/15 11:01:31;;;;;;;8.30;5.03;;;;;;;31.83;42.43;96699.56;2071874;28;20424;-66
2023/09/15 11:02:35;;;;;;;8.37;4.93;;;;;;;31.28;42.96;96708.41;2071213;28;20430;-65
2023/09/15 11:03:37;;;;;;;7.10;5.13;;;;;;;31.49;43.12;96707.50;2073783;28;20457;-66
2023/09/15 11:04:40;;;;;;;8.40;5.60;;;;;;;30.79;43.89;96691.22;2070708;28;20462;-65
2023/09/15 11:05:41;;;;;;;8.40;4.03;;;;;;;31.36;43.23;96697.47;2072045;28;20463;-66
2023/09/15 11:06:48;;;;;;;5.43;4.10;;;;;;;32.31;41.96;96691.41;2071485;28;20433;-66
2023/09/15 11:07:50;;;;;;;5.37;3.80;;;;;;;32.75;41.47;96689.19;2079988;28;20577;-66
2023/09/15 11:08:53;;;;;;;5.90;4.63;;;;;;;32.49;42.13;96695.38;2079369;28;20438;-66
2023/09/15 11:09:57;;;;;;;8.97;4.13;;;;;;;32.82;41.17;96689.16;2079299;28;21195;-66
2023/09/15 11:10:59;;;;;;;4.90;3.60;;;;;;;33.10;40.87;96688.09;2077351;28;20572;-66
2023/09/15 11:12:03;;;;;;;5.87;4.23;;;;;;;33.00;41.10;96689.38;2072402;28;20985;-66
2023/09/15 11:13:04;;;;;;;6.43;4.83;;;;;;;32.97;41.31;96691.66;2072103;28;20469;-66
2023/09/15 11:14:06;;;;;;;5.30;4.13;;;;;;;32.74;41.33;96689.41;2072106;28;20744;-66
2023/09/15 11:15:08;;;;;;;5.73;4.30;;;;;;;32.64;40.50;96679.78;2070770;28;25626;-66
2023/09/15 11:16:10;;;;;;;5.70;4.17;;;;;;;32.70;41.75;96687.06;2071874;28;20471;-65
2023/09/15 11:17:12;;;;;;;8.70;5.50;;;;;;;31.13;43.17;96686.94;2071950;28;20446;-65
2023/09/15 11:18:13;;;;;;;6.10;4.70;;;;;;;31.61;43.45;96685.34;2072286;28;20435;-66
2023/09/15 11:19:22;;;;;;;6.10;4.30;;;;;;;32.44;41.62;96689.75;2075074;28;20416;-66
2023/09/15 11:20:24;;;;;;;5.17;3.97;;;;;;;32.75;41.40;96683.78;2071620;28;20544;-66
2023/09/15 11:21:27;;;;;;;6.23;4.37;;;;;;;32.34;41.67;96682.91;2071659;28;20428;-66
2023/09/15 11:22:29;;;;;;;7.20;4.90;;;;;;;30.06;44.54;96684.13;2071803;28;20424;-66
2023/09/15 11:23:30;;;;;;;8.27;4.67;;;;;;;28.79;46.70;96693.16;2073531;28;20937;-65
2023/09/15 11:24:33;;;;;;;7.17;4.60;;;;;;;27.75;49.18;96682.81;2074405;28;20423;-65
2023/09/15 11:25:35;;;;;;;7.77;4.07;;;;;;;29.61;46.49;96683.38;2073004;28;20468;-65
2023/09/15 11:26:48;;;;;;;6.43;5.37;;;;;;;29.55;46.14;96674.22;2072867;28;20480;-65
2023/09/15 11:27:49;;;;;;;5.73;4.60;;;;;;;30.56;45.19;96680.69;2072045;28;20823;-65
2023/09/15 11:28:54;;;;;;;9.13;4.90;;;;;;;31.01;44.34;96685.78;2074241;28;20436;-66
2023/09/15 11:30:02;;;;;;;8.57;5.30;;;;;;;30.27;45.55;96682.47;2074498;28;20525;-66
2023/09/15 11:31:08;;;;;;;12.73;5.20;;;;;;;31.05;44.50;96685.19;2075899;28;20431;-65
2023/09/15 11:32:12;;;;;;;9.67;5.60;;;;;;;30.95;44.28;96687.41;2073630;28;20440;-66
2023/09/15 11:33:14;;;;;;;8.53;4.80;;;;;;;30.29;45.32;96678.53;2072885;28;20470;-66
2023/09/15 11:34:16;;;;;;;8.00;6.03;;;;;;;30.25;44.72;96676.47;2071555;28;20435;-66
2023/09/15 11:35:19;;;;;;;9.10;5.83;;;;;;;27.70;49.85;96678.78;2073031;28;20536;-66
2023/09/15 11:36:21;;;;;;;7.80;4.67;;;;;;;29.40;47.12;96671.53;2071470;28;21113;-66
2023/09/15 11:37:23;;;;;;;6.60;4.60;;;;;;;30.43;45.47;96671.44;2073086;28;20431;-66
2023/09/15 11:38:24;;;;;;;6.70;4.77;;;;;;;31.32;44.19;96674.59;2073643;28;20494;-66
2023/09/15 11:39:28;;;;;;;6.37;3.70;;;;;;;31.70;43.49;96668.78;2075184;28;20783;-66
2023/09/15 11:40:29;;;;;;;10.43;4.50;;;;;;;31.54;43.25;96675.34;2075057;28;20489;-66
2023/09/15 11:41:31;;;;;;;9.03;5.07;;;;;;;31.51;43.55;96670.34;2075573;28;20437;-66
2023/09/15 11:42:36;;;;;;;10.20;5.27;;;;;;;29.58;45.28;96664.94;2075620;28;20526;-66